KDDC/DDC METAR and TAF weather

Enter ICAO airport designator
Station Type Date Time Source
KDDC METAR 2020/09/19 05:52 UTC NOAA

KDDC 190552Z AUTO 15008KT 7SM CLR 14/11 A3022 RMK AO2 SLP212 T01440111 10239 20144 402720128 58002


Station Type Date Time Source
KDDC Decoded METAR 2020/09/19 05:52 UTC NOAA

DODGE CITY REGIONAL AIRPORT, KS, United States (KDDC) 37-46N 99-58W 789M
Sep 19, 2020 - 01:52 AM EDT / 2020.09.19 0552 UTC
Wind: from the SSE (150 degrees) at 9 MPH (8 KT):0
Visibility: 7 mile(s):0
Sky conditions: clear
Temperature: 57.9 F (14.4 C)
Dew Point: 52.0 F (11.1 C)
Relative Humidity: 80%
Pressure (altimeter): 30.22 in. Hg (1023 hPa)
Pressure tendency: 0.01 inches (0.2 hPa) lower than three hours ago
ob: KDDC 190552Z AUTO 15008KT 7SM CLR 14/11 A3022 RMK AO2 SLP212 T01440111 10239 20144 402720128 58002
cycle: 6

Station Type Date Time Source
KDDC TAF 2020/09/19 06:22 UTC NOAA

TAF KDDC 190520Z 1906/2006 16010KT 5SM HZ SKC
FM191300 18011G19KT 5SM HZ SKC
FM191700 18017G25KT 5SM HZ SKC

Example: see airport list